Terminal Aerodrome Forecast
Issued by NWS Grand Forks, ND

Home | Current Version | Previous Version | Graphics & Text | Print | Product List | Glossary On
Versions: 1 2 3 4 5 6 7 8 9 10 11 12 13 14 15 16 17
000
FTUS43 KFGF 211509 AAA
TAFGFK
TAF AMD
KGFK 211509Z 2115/2212 17013KT P6SM VCSH BKN080
      TEMPO 2116/2118 -SHRA BKN040
     FM211900 20016G24KT P6SM BKN120
     FM212300 26014KT P6SM SCT200
     FM220600 27004KT P6SM FEW250=

USA.gov is the U.S. government's official web portal to all federal, state and local government web resources and services.